sensor_id;sensor_type;location;lat;lon;timestamp;P1;durP1;ratioP1;P2;durP2;ratioP2
51066;SDS011;37112;45.892;-123.962;2022-12-20T00:00:30;12.30;;;4.90;;
51066;SDS011;37112;45.892;-123.962;2022-12-20T00:02:52;11.10;;;3.70;;
51066;SDS011;37112;45.892;-123.962;2022-12-20T00:05:06;7.80;;;3.00;;
51066;SDS011;37112;45.892;-123.962;2022-12-20T00:07:19;5.70;;;2.70;;
51066;SDS011;37112;45.892;-123.962;2022-12-20T00:09:33;2.30;;;1.20;;
51066;SDS011;37112;45.892;-123.962;2022-12-20T00:11:46;2.90;;;0.80;;
51066;SDS011;37112;45.892;-123.962;2022-12-20T00:14:00;1.40;;;0.80;;
51066;SDS011;37112;45.892;-123.962;2022-12-20T00:16:14;2.10;;;0.70;;
51066;SDS011;37112;45.892;-123.962;2022-12-20T00:18:29;1.70;;;0.80;;
51066;SDS011;37112;45.892;-123.962;2022-12-20T00:20:43;3.80;;;0.80;;
51066;SDS011;37112;45.892;-123.962;2022-12-20T00:22:56;2.00;;;0.60;;
51066;SDS011;37112;45.892;-123.962;2022-12-20T00:25:10;4.60;;;0.70;;
51066;SDS011;37112;45.892;-123.962;2022-12-20T00:27:23;1.10;;;0.60;;
51066;SDS011;37112;45.892;-123.962;2022-12-20T00:29:37;2.50;;;0.90;;
51066;SDS011;37112;45.892;-123.962;2022-12-20T00:31:50;4.60;;;0.90;;
51066;SDS011;37112;45.892;-123.962;2022-12-20T00:34:04;3.50;;;0.70;;
51066;SDS011;37112;45.892;-123.962;2022-12-20T00:36:18;1.90;;;0.50;;
51066;SDS011;37112;45.892;-123.962;2022-12-20T00:38:32;2.20;;;0.60;;
51066;SDS011;37112;45.892;-123.962;2022-12-20T00:40:46;1.90;;;0.60;;
51066;SDS011;37112;45.892;-123.962;2022-12-20T00:43:08;2.20;;;0.60;;
51066;SDS011;37112;45.892;-123.962;2022-12-20T00:45:21;2.70;;;0.60;;
51066;SDS011;37112;45.892;-123.962;2022-12-20T00:47:34;2.10;;;0.60;;
51066;SDS011;37112;45.892;-123.962;2022-12-20T00:49:48;2.60;;;0.70;;
51066;SDS011;37112;45.892;-123.962;2022-12-20T00:52:01;2.50;;;0.50;;
51066;SDS011;37112;45.892;-123.962;2022-12-20T00:54:15;2.20;;;0.80;;
51066;SDS011;37112;45.892;-123.962;2022-12-20T00:56:28;2.90;;;0.90;;
51066;SDS011;37112;45.892;-123.962;2022-12-20T00:58:41;3.50;;;1.00;;
51066;SDS011;37112;45.892;-123.962;2022-12-20T01:00:55;2.70;;;1.00;;
51066;SDS011;37112;45.892;-123.962;2022-12-20T01:03:08;3.10;;;1.00;;
51066;SDS011;37112;45.892;-123.962;2022-12-20T01:05:22;3.20;;;1.50;;
51066;SDS011;37112;45.892;-123.962;2022-12-20T01:07:35;7.30;;;1.60;;
51066;SDS011;37112;45.892;-123.962;2022-12-20T01:09:49;2.40;;;1.40;;
51066;SDS011;37112;45.892;-123.962;2022-12-20T01:12:02;2.80;;;1.40;;
51066;SDS011;37112;45.892;-123.962;2022-12-20T01:14:16;2.90;;;1.80;;
51066;SDS011;37112;45.892;-123.962;2022-12-20T01:16:30;3.40;;;1.60;;
51066;SDS011;37112;45.892;-123.962;2022-12-20T01:18:45;2.10;;;1.60;;
51066;SDS011;37112;45.892;-123.962;2022-12-20T01:21:04;4.10;;;2.00;;
51066;SDS011;37112;45.892;-123.962;2022-12-20T01:23:19;2.20;;;2.00;;
51066;SDS011;37112;45.892;-123.962;2022-12-20T01:25:33;3.10;;;1.70;;
51066;SDS011;37112;45.892;-123.962;2022-12-20T01:27:46;2.10;;;1.60;;
51066;SDS011;37112;45.892;-123.962;2022-12-20T01:30:00;3.90;;;1.80;;
51066;SDS011;37112;45.892;-123.962;2022-12-20T01:32:14;4.10;;;2.00;;
51066;SDS011;37112;45.892;-123.962;2022-12-20T01:34:27;2.30;;;1.50;;
51066;SDS011;37112;45.892;-123.962;2022-12-20T01:36:40;1.70;;;1.30;;
51066;SDS011;37112;45.892;-123.962;2022-12-20T01:38:56;5.90;;;1.30;;
51066;SDS011;37112;45.892;-123.962;2022-12-20T01:41:12;5.20;;;1.40;;
51066;SDS011;37112;45.892;-123.962;2022-12-20T01:43:43;5.30;;;1.60;;
51066;SDS011;37112;45.892;-123.962;2022-12-20T01:45:58;1.50;;;1.30;;
51066;SDS011;37112;45.892;-123.962;2022-12-20T01:48:13;2.80;;;2.00;;
51066;SDS011;37112;45.892;-123.962;2022-12-20T01:50:30;2.30;;;1.20;;
51066;SDS011;37112;45.892;-123.962;2022-12-20T01:52:44;1.80;;;1.30;;
51066;SDS011;37112;45.892;-123.962;2022-12-20T01:54:59;3.70;;;1.20;;
51066;SDS011;37112;45.892;-123.962;2022-12-20T01:57:17;3.50;;;2.00;;
51066;SDS011;37112;45.892;-123.962;2022-12-20T01:59:36;6.90;;;3.70;;
51066;SDS011;37112;45.892;-123.962;2022-12-20T02:01:52;4.10;;;2.70;;
51066;SDS011;37112;45.892;-123.962;2022-12-20T02:04:08;4.40;;;2.40;;
51066;SDS011;37112;45.892;-123.962;2022-12-20T02:06:23;6.40;;;2.80;;
51066;SDS011;37112;45.892;-123.962;2022-12-20T02:08:39;10.30;;;2.50;;
51066;SDS011;37112;45.892;-123.962;2022-12-20T02:10:57;34.60;;;14.60;;
51066;SDS011;37112;45.892;-123.962;2022-12-20T02:13:23;6.20;;;2.70;;
51066;SDS011;37112;45.892;-123.962;2022-12-20T02:15:48;6.80;;;4.60;;
51066;SDS011;37112;45.892;-123.962;2022-12-20T02:18:10;4.50;;;1.60;;
51066;SDS011;37112;45.892;-123.962;2022-12-20T02:25:57;3.30;;;2.00;;
51066;SDS011;37112;45.892;-123.962;2022-12-20T02:28:29;3.60;;;1.80;;
51066;SDS011;37112;45.892;-123.962;2022-12-20T02:31:02;3.70;;;1.60;;
51066;SDS011;37112;45.892;-123.962;2022-12-20T02:33:19;3.20;;;1.80;;
51066;SDS011;37112;45.892;-123.962;2022-12-20T02:35:35;3.20;;;1.20;;
51066;SDS011;37112;45.892;-123.962;2022-12-20T02:37:51;2.90;;;1.20;;
51066;SDS011;37112;45.892;-123.962;2022-12-20T02:40:06;4.00;;;1.50;;
51066;SDS011;37112;45.892;-123.962;2022-12-20T02:42:21;3.20;;;1.10;;
51066;SDS011;37112;45.892;-123.962;2022-12-20T02:44:36;11.30;;;8.00;;
51066;SDS011;37112;45.892;-123.962;2022-12-20T02:47:16;7.30;;;4.40;;
51066;SDS011;37112;45.892;-123.962;2022-12-20T02:49:36;6.00;;;2.70;;
51066;SDS011;37112;45.892;-123.962;2022-12-20T02:51:52;3.00;;;1.70;;
51066;SDS011;37112;45.892;-123.962;2022-12-20T02:54:10;2.00;;;1.10;;
51066;SDS011;37112;45.892;-123.962;2022-12-20T02:56:27;1.20;;;1.00;;
51066;SDS011;37112;45.892;-123.962;2022-12-20T02:58:43;2.20;;;1.50;;
51066;SDS011;37112;45.892;-123.962;2022-12-20T03:01:02;2.00;;;1.00;;
51066;SDS011;37112;45.892;-123.962;2022-12-20T03:03:19;1.50;;;1.00;;
51066;SDS011;37112;45.892;-123.962;2022-12-20T03:05:34;0.90;;;0.80;;
51066;SDS011;37112;45.892;-123.962;2022-12-20T03:10:08;1.20;;;1.00;;
51066;SDS011;37112;45.892;-123.962;2022-12-20T03:12:22;6.90;;;2.70;;
51066;SDS011;37112;45.892;-123.962;2022-12-20T03:14:35;26.70;;;13.30;;
51066;SDS011;37112;45.892;-123.962;2022-12-20T03:16:50;36.90;;;20.90;;
51066;SDS011;37112;45.892;-123.962;2022-12-20T03:19:04;16.00;;;9.00;;
51066;SDS011;37112;45.892;-123.962;2022-12-20T03:21:18;4.00;;;2.60;;
51066;SDS011;37112;45.892;-123.962;2022-12-20T03:23:31;4.30;;;1.50;;
51066;SDS011;37112;45.892;-123.962;2022-12-20T03:25:45;1.40;;;1.20;;
51066;SDS011;37112;45.892;-123.962;2022-12-20T03:28:10;12.00;;;7.00;;
51066;SDS011;37112;45.892;-123.962;2022-12-20T03:30:23;15.10;;;7.30;;
51066;SDS011;37112;45.892;-123.962;2022-12-20T03:32:37;2.30;;;1.20;;
51066;SDS011;37112;45.892;-123.962;2022-12-20T03:34:50;4.00;;;3.50;;
51066;SDS011;37112;45.892;-123.962;2022-12-20T03:37:09;6.20;;;1.60;;
51066;SDS011;37112;45.892;-123.962;2022-12-20T03:39:23;1.00;;;0.80;;
51066;SDS011;37112;45.892;-123.962;2022-12-20T03:41:36;1.70;;;0.90;;
51066;SDS011;37112;45.892;-123.962;2022-12-20T03:43:51;4.40;;;2.90;;
51066;SDS011;37112;45.892;-123.962;2022-12-20T03:46:05;27.00;;;13.40;;
51066;SDS011;37112;45.892;-123.962;2022-12-20T03:48:19;18.00;;;11.30;;
51066;SDS011;37112;45.892;-123.962;2022-12-20T03:50:32;5.70;;;3.40;;
51066;SDS011;37112;45.892;-123.962;2022-12-20T03:52:46;6.40;;;4.60;;
51066;SDS011;37112;45.892;-123.962;2022-12-20T03:55:00;2.80;;;0.80;;
51066;SDS011;37112;45.892;-123.962;2022-12-20T03:57:18;2.80;;;1.30;;
51066;SDS011;37112;45.892;-123.962;2022-12-20T03:59:31;1.30;;;0.80;;
51066;SDS011;37112;45.892;-123.962;2022-12-20T04:01:47;1.10;;;0.60;;
51066;SDS011;37112;45.892;-123.962;2022-12-20T04:04:01;0.70;;;0.60;;
51066;SDS011;37112;45.892;-123.962;2022-12-20T04:06:15;0.80;;;0.70;;
51066;SDS011;37112;45.892;-123.962;2022-12-20T04:08:29;2.80;;;1.40;;
51066;SDS011;37112;45.892;-123.962;2022-12-20T04:10:42;2.70;;;2.30;;
51066;SDS011;37112;45.892;-123.962;2022-12-20T04:13:13;4.00;;;1.80;;
51066;SDS011;37112;45.892;-123.962;2022-12-20T04:15:27;2.10;;;1.90;;
51066;SDS011;37112;45.892;-123.962;2022-12-20T04:17:40;2.30;;;1.70;;
51066;SDS011;37112;45.892;-123.962;2022-12-20T04:19:54;4.70;;;1.90;;
51066;SDS011;37112;45.892;-123.962;2022-12-20T04:22:53;1.70;;;1.20;;
51066;SDS011;37112;45.892;-123.962;2022-12-20T04:25:06;2.00;;;1.10;;
51066;SDS011;37112;45.892;-123.962;2022-12-20T04:27:21;2.50;;;0.90;;
51066;SDS011;37112;45.892;-123.962;2022-12-20T04:29:35;0.90;;;0.60;;
51066;SDS011;37112;45.892;-123.962;2022-12-20T04:31:49;0.60;;;0.60;;
51066;SDS011;37112;45.892;-123.962;2022-12-20T04:34:03;0.60;;;0.60;;
51066;SDS011;37112;45.892;-123.962;2022-12-20T04:36:17;2.20;;;0.90;;
51066;SDS011;37112;45.892;-123.962;2022-12-20T04:38:30;6.70;;;1.30;;
51066;SDS011;37112;45.892;-123.962;2022-12-20T04:40:44;4.10;;;1.90;;
51066;SDS011;37112;45.892;-123.962;2022-12-20T04:42:59;12.90;;;7.40;;
51066;SDS011;37112;45.892;-123.962;2022-12-20T04:45:13;4.30;;;2.30;;
51066;SDS011;37112;45.892;-123.962;2022-12-20T04:47:27;6.30;;;2.40;;
51066;SDS011;37112;45.892;-123.962;2022-12-20T04:49:40;1.60;;;0.90;;
51066;SDS011;37112;45.892;-123.962;2022-12-20T04:51:54;1.60;;;0.80;;
51066;SDS011;37112;45.892;-123.962;2022-12-20T04:54:28;0.90;;;0.60;;
51066;SDS011;37112;45.892;-123.962;2022-12-20T04:56:51;0.50;;;0.50;;
51066;SDS011;37112;45.892;-123.962;2022-12-20T04:59:05;2.20;;;0.60;;
51066;SDS011;37112;45.892;-123.962;2022-12-20T05:01:20;0.90;;;0.60;;
51066;SDS011;37112;45.892;-123.962;2022-12-20T05:03:34;2.60;;;0.60;;
51066;SDS011;37112;45.892;-123.962;2022-12-20T05:05:48;0.60;;;0.60;;
51066;SDS011;37112;45.892;-123.962;2022-12-20T05:08:02;0.90;;;0.80;;
51066;SDS011;37112;45.892;-123.962;2022-12-20T05:10:16;1.00;;;1.20;;
51066;SDS011;37112;45.892;-123.962;2022-12-20T05:12:30;1.10;;;0.80;;
51066;SDS011;37112;45.892;-123.962;2022-12-20T05:14:44;1.20;;;0.80;;
51066;SDS011;37112;45.892;-123.962;2022-12-20T05:16:59;0.80;;;0.80;;
51066;SDS011;37112;45.892;-123.962;2022-12-20T05:19:12;1.30;;;0.70;;
51066;SDS011;37112;45.892;-123.962;2022-12-20T05:21:25;1.40;;;1.30;;
51066;SDS011;37112;45.892;-123.962;2022-12-20T05:23:55;0.70;;;0.70;;
51066;SDS011;37112;45.892;-123.962;2022-12-20T05:26:50;0.70;;;0.70;;
51066;SDS011;37112;45.892;-123.962;2022-12-20T05:29:04;1.00;;;0.60;;
51066;SDS011;37112;45.892;-123.962;2022-12-20T05:31:18;0.70;;;0.50;;
51066;SDS011;37112;45.892;-123.962;2022-12-20T05:33:31;1.10;;;0.60;;
51066;SDS011;37112;45.892;-123.962;2022-12-20T05:35:46;0.80;;;0.80;;
51066;SDS011;37112;45.892;-123.962;2022-12-20T05:37:59;1.70;;;0.80;;
51066;SDS011;37112;45.892;-123.962;2022-12-20T05:40:14;1.70;;;1.40;;
51066;SDS011;37112;45.892;-123.962;2022-12-20T05:42:27;2.00;;;1.40;;
51066;SDS011;37112;45.892;-123.962;2022-12-20T05:44:41;2.30;;;1.10;;
51066;SDS011;37112;45.892;-123.962;2022-12-20T05:46:54;4.20;;;1.00;;
51066;SDS011;37112;45.892;-123.962;2022-12-20T05:49:09;1.50;;;0.80;;
51066;SDS011;37112;45.892;-123.962;2022-12-20T05:51:23;0.90;;;0.80;;
51066;SDS011;37112;45.892;-123.962;2022-12-20T05:53:40;1.40;;;1.00;;
51066;SDS011;37112;45.892;-123.962;2022-12-20T05:55:56;2.80;;;1.00;;
51066;SDS011;37112;45.892;-123.962;2022-12-20T05:58:12;1.90;;;0.90;;
51066;SDS011;37112;45.892;-123.962;2022-12-20T06:00:32;2.00;;;1.10;;
51066;SDS011;37112;45.892;-123.962;2022-12-20T06:02:46;1.60;;;0.90;;
51066;SDS011;37112;45.892;-123.962;2022-12-20T06:05:00;1.30;;;1.00;;
51066;SDS011;37112;45.892;-123.962;2022-12-20T06:07:14;1.00;;;0.90;;
51066;SDS011;37112;45.892;-123.962;2022-12-20T06:09:32;1.30;;;1.00;;
51066;SDS011;37112;45.892;-123.962;2022-12-20T06:11:51;1.50;;;0.90;;
51066;SDS011;37112;45.892;-123.962;2022-12-20T06:14:06;1.00;;;0.70;;
51066;SDS011;37112;45.892;-123.962;2022-12-20T06:16:23;3.00;;;0.80;;
51066;SDS011;37112;45.892;-123.962;2022-12-20T06:18:37;0.80;;;0.60;;
51066;SDS011;37112;45.892;-123.962;2022-12-20T06:20:51;2.20;;;0.90;;
51066;SDS011;37112;45.892;-123.962;2022-12-20T06:23:06;2.10;;;1.30;;
51066;SDS011;37112;45.892;-123.962;2022-12-20T06:25:27;3.90;;;1.00;;
51066;SDS011;37112;45.892;-123.962;2022-12-20T06:27:41;0.90;;;0.90;;
51066;SDS011;37112;45.892;-123.962;2022-12-20T06:29:55;1.30;;;0.90;;
51066;SDS011;37112;45.892;-123.962;2022-12-20T06:32:16;1.30;;;0.60;;
51066;SDS011;37112;45.892;-123.962;2022-12-20T06:34:32;1.50;;;0.80;;
51066;SDS011;37112;45.892;-123.962;2022-12-20T06:36:45;3.30;;;1.30;;
51066;SDS011;37112;45.892;-123.962;2022-12-20T06:39:03;1.00;;;0.90;;
51066;SDS011;37112;45.892;-123.962;2022-12-20T06:41:24;0.50;;;0.50;;
51066;SDS011;37112;45.892;-123.962;2022-12-20T06:43:38;0.70;;;0.70;;
51066;SDS011;37112;45.892;-123.962;2022-12-20T06:45:51;1.00;;;0.70;;
51066;SDS011;37112;45.892;-123.962;2022-12-20T06:48:05;2.10;;;0.70;;
51066;SDS011;37112;45.892;-123.962;2022-12-20T06:50:20;0.50;;;0.50;;
51066;SDS011;37112;45.892;-123.962;2022-12-20T06:52:34;1.00;;;0.50;;
51066;SDS011;37112;45.892;-123.962;2022-12-20T06:54:49;0.80;;;0.60;;
51066;SDS011;37112;45.892;-123.962;2022-12-20T06:57:03;0.70;;;0.70;;
51066;SDS011;37112;45.892;-123.962;2022-12-20T06:59:19;1.00;;;0.70;;
51066;SDS011;37112;45.892;-123.962;2022-12-20T07:01:32;0.90;;;0.80;;
51066;SDS011;37112;45.892;-123.962;2022-12-20T07:03:46;1.70;;;0.90;;
51066;SDS011;37112;45.892;-123.962;2022-12-20T07:06:00;1.90;;;0.90;;
51066;SDS011;37112;45.892;-123.962;2022-12-20T07:08:13;1.00;;;0.90;;
51066;SDS011;37112;45.892;-123.962;2022-12-20T07:10:27;3.60;;;1.00;;
51066;SDS011;37112;45.892;-123.962;2022-12-20T07:12:40;1.60;;;1.00;;
51066;SDS011;37112;45.892;-123.962;2022-12-20T07:14:54;4.60;;;1.40;;
51066;SDS011;37112;45.892;-123.962;2022-12-20T07:17:08;1.90;;;1.40;;
51066;SDS011;37112;45.892;-123.962;2022-12-20T07:19:21;2.00;;;1.00;;
51066;SDS011;37112;45.892;-123.962;2022-12-20T07:21:34;1.10;;;0.80;;
51066;SDS011;37112;45.892;-123.962;2022-12-20T07:23:48;2.20;;;0.70;;
51066;SDS011;37112;45.892;-123.962;2022-12-20T07:26:01;1.30;;;0.70;;
51066;SDS011;37112;45.892;-123.962;2022-12-20T07:28:15;4.20;;;0.90;;
51066;SDS011;37112;45.892;-123.962;2022-12-20T07:30:28;2.40;;;0.80;;
51066;SDS011;37112;45.892;-123.962;2022-12-20T07:32:42;1.70;;;0.70;;
51066;SDS011;37112;45.892;-123.962;2022-12-20T07:34:56;2.20;;;0.70;;
51066;SDS011;37112;45.892;-123.962;2022-12-20T07:37:09;0.80;;;0.80;;
51066;SDS011;37112;45.892;-123.962;2022-12-20T07:39:23;2.00;;;0.70;;
51066;SDS011;37112;45.892;-123.962;2022-12-20T07:41:36;1.60;;;0.90;;
51066;SDS011;37112;45.892;-123.962;2022-12-20T07:43:54;2.80;;;0.90;;
51066;SDS011;37112;45.892;-123.962;2022-12-20T07:46:08;1.70;;;0.70;;
51066;SDS011;37112;45.892;-123.962;2022-12-20T07:48:22;3.50;;;0.80;;
51066;SDS011;37112;45.892;-123.962;2022-12-20T07:50:35;1.40;;;0.80;;
51066;SDS011;37112;45.892;-123.962;2022-12-20T07:52:50;3.10;;;1.00;;
51066;SDS011;37112;45.892;-123.962;2022-12-20T07:55:04;2.70;;;1.10;;
51066;SDS011;37112;45.892;-123.962;2022-12-20T07:57:20;1.30;;;0.80;;
51066;SDS011;37112;45.892;-123.962;2022-12-20T07:59:37;1.00;;;0.70;;
51066;SDS011;37112;45.892;-123.962;2022-12-20T08:01:54;0.80;;;0.70;;
51066;SDS011;37112;45.892;-123.962;2022-12-20T08:04:12;2.70;;;1.00;;
51066;SDS011;37112;45.892;-123.962;2022-12-20T08:06:27;2.40;;;1.30;;
51066;SDS011;37112;45.892;-123.962;2022-12-20T08:08:43;5.10;;;1.80;;
51066;SDS011;37112;45.892;-123.962;2022-12-20T08:11:00;1.40;;;0.70;;
51066;SDS011;37112;45.892;-123.962;2022-12-20T08:13:16;1.40;;;1.20;;
51066;SDS011;37112;45.892;-123.962;2022-12-20T08:15:29;2.40;;;0.80;;
51066;SDS011;37112;45.892;-123.962;2022-12-20T08:17:43;1.10;;;0.80;;
51066;SDS011;37112;45.892;-123.962;2022-12-20T08:19:56;4.90;;;0.80;;
51066;SDS011;37112;45.892;-123.962;2022-12-20T08:22:09;1.80;;;0.90;;
51066;SDS011;37112;45.892;-123.962;2022-12-20T08:24:22;4.90;;;1.40;;
51066;SDS011;37112;45.892;-123.962;2022-12-20T08:26:38;2.50;;;0.90;;
51066;SDS011;37112;45.892;-123.962;2022-12-20T08:28:51;4.00;;;1.10;;
51066;SDS011;37112;45.892;-123.962;2022-12-20T08:31:06;3.10;;;2.00;;
51066;SDS011;37112;45.892;-123.962;2022-12-20T08:33:21;5.40;;;1.20;;
51066;SDS011;37112;45.892;-123.962;2022-12-20T08:35:34;2.70;;;0.70;;
51066;SDS011;37112;45.892;-123.962;2022-12-20T08:37:47;1.80;;;1.10;;
51066;SDS011;37112;45.892;-123.962;2022-12-20T08:40:03;4.30;;;0.80;;
51066;SDS011;37112;45.892;-123.962;2022-12-20T08:42:20;1.20;;;0.90;;
51066;SDS011;37112;45.892;-123.962;2022-12-20T08:44:34;2.10;;;0.80;;
51066;SDS011;37112;45.892;-123.962;2022-12-20T08:46:47;2.20;;;1.00;;
51066;SDS011;37112;45.892;-123.962;2022-12-20T08:49:01;5.40;;;1.70;;
51066;SDS011;37112;45.892;-123.962;2022-12-20T08:51:14;2.30;;;1.30;;
51066;SDS011;37112;45.892;-123.962;2022-12-20T08:53:28;2.90;;;1.30;;
51066;SDS011;37112;45.892;-123.962;2022-12-20T08:55:42;4.90;;;1.40;;
51066;SDS011;37112;45.892;-123.962;2022-12-20T08:57:55;2.60;;;1.10;;
51066;SDS011;37112;45.892;-123.962;2022-12-20T09:00:09;4.20;;;1.10;;
51066;SDS011;37112;45.892;-123.962;2022-12-20T09:02:23;6.10;;;1.30;;
51066;SDS011;37112;45.892;-123.962;2022-12-20T09:04:36;3.30;;;1.40;;
51066;SDS011;37112;45.892;-123.962;2022-12-20T09:06:51;3.50;;;1.60;;
51066;SDS011;37112;45.892;-123.962;2022-12-20T09:09:04;13.00;;;2.40;;
51066;SDS011;37112;45.892;-123.962;2022-12-20T09:11:18;10.80;;;3.10;;
51066;SDS011;37112;45.892;-123.962;2022-12-20T09:13:33;8.30;;;3.70;;
51066;SDS011;37112;45.892;-123.962;2022-12-20T09:15:50;13.20;;;1.90;;
51066;SDS011;37112;45.892;-123.962;2022-12-20T09:18:03;6.70;;;1.70;;
51066;SDS011;37112;45.892;-123.962;2022-12-20T09:20:17;7.10;;;2.10;;
51066;SDS011;37112;45.892;-123.962;2022-12-20T09:22:30;13.10;;;2.80;;
51066;SDS011;37112;45.892;-123.962;2022-12-20T09:24:44;7.20;;;1.40;;
51066;SDS011;37112;45.892;-123.962;2022-12-20T09:26:57;8.90;;;1.50;;
51066;SDS011;37112;45.892;-123.962;2022-12-20T09:29:11;7.80;;;1.50;;
51066;SDS011;37112;45.892;-123.962;2022-12-20T09:31:33;7.60;;;1.60;;
51066;SDS011;37112;45.892;-123.962;2022-12-20T09:33:46;5.50;;;1.50;;
51066;SDS011;37112;45.892;-123.962;2022-12-20T09:36:02;3.40;;;1.60;;
51066;SDS011;37112;45.892;-123.962;2022-12-20T09:38:19;5.10;;;1.40;;
51066;SDS011;37112;45.892;-123.962;2022-12-20T09:40:33;6.10;;;2.00;;
51066;SDS011;37112;45.892;-123.962;2022-12-20T09:42:47;2.20;;;1.20;;
51066;SDS011;37112;45.892;-123.962;2022-12-20T09:45:04;4.10;;;1.20;;
51066;SDS011;37112;45.892;-123.962;2022-12-20T09:47:19;3.90;;;1.20;;
51066;SDS011;37112;45.892;-123.962;2022-12-20T09:49:34;7.40;;;2.40;;
51066;SDS011;37112;45.892;-123.962;2022-12-20T09:51:56;6.60;;;1.60;;
51066;SDS011;37112;45.892;-123.962;2022-12-20T09:54:28;4.70;;;1.60;;
51066;SDS011;37112;45.892;-123.962;2022-12-20T09:56:57;5.20;;;1.20;;
51066;SDS011;37112;45.892;-123.962;2022-12-20T09:59:14;2.40;;;1.10;;
51066;SDS011;37112;45.892;-123.962;2022-12-20T10:01:30;5.30;;;1.40;;
51066;SDS011;37112;45.892;-123.962;2022-12-20T10:03:46;3.10;;;1.40;;
51066;SDS011;37112;45.892;-123.962;2022-12-20T10:06:02;3.10;;;1.10;;
51066;SDS011;37112;45.892;-123.962;2022-12-20T10:11:00;4.90;;;1.60;;
51066;SDS011;37112;45.892;-123.962;2022-12-20T10:13:22;3.50;;;1.50;;
51066;SDS011;37112;45.892;-123.962;2022-12-20T10:15:48;8.40;;;1.40;;
51066;SDS011;37112;45.892;-123.962;2022-12-20T10:18:13;5.90;;;1.20;;
51066;SDS011;37112;45.892;-123.962;2022-12-20T10:20:41;2.40;;;0.90;;
51066;SDS011;37112;45.892;-123.962;2022-12-20T10:23:08;5.90;;;1.90;;
51066;SDS011;37112;45.892;-123.962;2022-12-20T10:25:38;1.80;;;1.20;;
51066;SDS011;37112;45.892;-123.962;2022-12-20T10:27:53;7.70;;;1.40;;
51066;SDS011;37112;45.892;-123.962;2022-12-20T10:32:26;2.60;;;1.40;;
51066;SDS011;37112;45.892;-123.962;2022-12-20T10:34:41;1.80;;;1.20;;
51066;SDS011;37112;45.892;-123.962;2022-12-20T10:37:11;4.50;;;1.60;;
51066;SDS011;37112;45.892;-123.962;2022-12-20T10:39:25;2.60;;;1.40;;
51066;SDS011;37112;45.892;-123.962;2022-12-20T10:41:52;2.60;;;1.30;;
51066;SDS011;37112;45.892;-123.962;2022-12-20T10:44:16;3.50;;;1.20;;
51066;SDS011;37112;45.892;-123.962;2022-12-20T10:46:36;5.20;;;1.90;;
51066;SDS011;37112;45.892;-123.962;2022-12-20T10:48:52;3.90;;;1.70;;
51066;SDS011;37112;45.892;-123.962;2022-12-20T10:51:12;4.30;;;1.40;;
51066;SDS011;37112;45.892;-123.962;2022-12-20T10:53:28;4.60;;;1.90;;
51066;SDS011;37112;45.892;-123.962;2022-12-20T10:55:42;9.60;;;1.60;;
51066;SDS011;37112;45.892;-123.962;2022-12-20T10:57:56;2.90;;;1.30;;
51066;SDS011;37112;45.892;-123.962;2022-12-20T11:00:26;4.10;;;1.40;;
51066;SDS011;37112;45.892;-123.962;2022-12-20T11:02:41;7.10;;;1.60;;
51066;SDS011;37112;45.892;-123.962;2022-12-20T11:05:20;5.10;;;1.90;;
51066;SDS011;37112;45.892;-123.962;2022-12-20T11:07:34;9.20;;;2.30;;
51066;SDS011;37112;45.892;-123.962;2022-12-20T11:12:29;6.80;;;2.00;;
51066;SDS011;37112;45.892;-123.962;2022-12-20T11:14:43;5.50;;;1.60;;
51066;SDS011;37112;45.892;-123.962;2022-12-20T11:16:57;8.10;;;2.00;;
51066;SDS011;37112;45.892;-123.962;2022-12-20T11:19:26;11.20;;;1.90;;
51066;SDS011;37112;45.892;-123.962;2022-12-20T11:21:46;6.60;;;1.90;;
51066;SDS011;37112;45.892;-123.962;2022-12-20T11:24:09;7.40;;;1.60;;
51066;SDS011;37112;45.892;-123.962;2022-12-20T11:26:34;6.60;;;2.50;;
51066;SDS011;37112;45.892;-123.962;2022-12-20T11:29:05;5.10;;;2.10;;
51066;SDS011;37112;45.892;-123.962;2022-12-20T11:31:30;4.60;;;1.80;;
51066;SDS011;37112;45.892;-123.962;2022-12-20T11:33:58;5.00;;;1.90;;
51066;SDS011;37112;45.892;-123.962;2022-12-20T11:36:20;5.50;;;2.30;;
51066;SDS011;37112;45.892;-123.962;2022-12-20T11:38:41;8.20;;;2.20;;
51066;SDS011;37112;45.892;-123.962;2022-12-20T11:41:13;3.90;;;1.80;;
51066;SDS011;37112;45.892;-123.962;2022-12-20T11:43:45;16.80;;;2.30;;
51066;SDS011;37112;45.892;-123.962;2022-12-20T11:46:33;9.00;;;1.60;;
51066;SDS011;37112;45.892;-123.962;2022-12-20T11:49:14;7.40;;;2.00;;
51066;SDS011;37112;45.892;-123.962;2022-12-20T11:51:44;7.30;;;1.70;;
51066;SDS011;37112;45.892;-123.962;2022-12-20T11:53:59;12.50;;;2.20;;
51066;SDS011;37112;45.892;-123.962;2022-12-20T11:56:20;14.70;;;2.60;;
51066;SDS011;37112;45.892;-123.962;2022-12-20T11:58:38;20.40;;;2.40;;
51066;SDS011;37112;45.892;-123.962;2022-12-20T12:01:02;12.10;;;2.10;;
51066;SDS011;37112;45.892;-123.962;2022-12-20T12:03:20;22.70;;;4.50;;
51066;SDS011;37112;45.892;-123.962;2022-12-20T12:05:39;16.80;;;2.40;;
51066;SDS011;37112;45.892;-123.962;2022-12-20T12:07:56;11.40;;;3.00;;
51066;SDS011;37112;45.892;-123.962;2022-12-20T12:10:18;12.90;;;2.30;;
51066;SDS011;37112;45.892;-123.962;2022-12-20T12:12:33;5.80;;;1.80;;
51066;SDS011;37112;45.892;-123.962;2022-12-20T12:14:53;12.20;;;2.40;;
51066;SDS011;37112;45.892;-123.962;2022-12-20T12:17:23;17.40;;;3.60;;
51066;SDS011;37112;45.892;-123.962;2022-12-20T12:19:41;11.80;;;2.40;;
51066;SDS011;37112;45.892;-123.962;2022-12-20T12:22:00;11.60;;;3.00;;
51066;SDS011;37112;45.892;-123.962;2022-12-20T12:24:17;7.60;;;2.30;;
51066;SDS011;37112;45.892;-123.962;2022-12-20T12:26:35;11.50;;;2.00;;
51066;SDS011;37112;45.892;-123.962;2022-12-20T12:28:50;14.10;;;2.10;;
51066;SDS011;37112;45.892;-123.962;2022-12-20T12:31:09;10.30;;;1.80;;
51066;SDS011;37112;45.892;-123.962;2022-12-20T12:33:27;11.70;;;2.70;;
51066;SDS011;37112;45.892;-123.962;2022-12-20T12:41:19;10.60;;;2.00;;
51066;SDS011;37112;45.892;-123.962;2022-12-20T12:43:57;9.20;;;2.30;;
51066;SDS011;37112;45.892;-123.962;2022-12-20T12:46:18;11.00;;;2.40;;
51066;SDS011;37112;45.892;-123.962;2022-12-20T12:48:38;14.30;;;2.20;;
51066;SDS011;37112;45.892;-123.962;2022-12-20T12:50:56;12.90;;;2.20;;
51066;SDS011;37112;45.892;-123.962;2022-12-20T12:53:12;11.70;;;2.10;;
51066;SDS011;37112;45.892;-123.962;2022-12-20T12:58:32;10.40;;;2.70;;
51066;SDS011;37112;45.892;-123.962;2022-12-20T13:00:55;17.30;;;2.30;;
51066;SDS011;37112;45.892;-123.962;2022-12-20T13:03:12;15.70;;;2.60;;
51066;SDS011;37112;45.892;-123.962;2022-12-20T13:05:44;13.20;;;3.10;;
51066;SDS011;37112;45.892;-123.962;2022-12-20T13:07:58;14.60;;;2.20;;
51066;SDS011;37112;45.892;-123.962;2022-12-20T13:13:00;8.30;;;2.40;;
51066;SDS011;37112;45.892;-123.962;2022-12-20T13:18:27;11.50;;;2.70;;
51066;SDS011;37112;45.892;-123.962;2022-12-20T13:20:40;12.30;;;2.80;;
51066;SDS011;37112;45.892;-123.962;2022-12-20T13:23:15;18.90;;;3.80;;
51066;SDS011;37112;45.892;-123.962;2022-12-20T13:25:29;12.30;;;2.40;;
51066;SDS011;37112;45.892;-123.962;2022-12-20T13:30:26;10.70;;;2.60;;
51066;SDS011;37112;45.892;-123.962;2022-12-20T13:32:56;12.50;;;2.50;;
51066;SDS011;37112;45.892;-123.962;2022-12-20T13:35:40;12.60;;;2.50;;
51066;SDS011;37112;45.892;-123.962;2022-12-20T13:38:04;9.20;;;2.70;;
51066;SDS011;37112;45.892;-123.962;2022-12-20T13:40:41;21.30;;;3.00;;